sensor_id;sensor_type;location;lat;lon;timestamp;temperature;humidity
67275;DHT22;55463;52.324;5.122;2024-03-29T00:00:35;9.31;82.30
67275;DHT22;55463;52.324;5.122;2024-03-29T00:03:01;9.28;82.43
67275;DHT22;55463;52.324;5.122;2024-03-29T00:05:26;9.28;82.53
67275;DHT22;55463;52.324;5.122;2024-03-29T00:07:51;9.25;82.51
67275;DHT22;55463;52.324;5.122;2024-03-29T00:10:17;9.28;82.53
67275;DHT22;55463;52.324;5.122;2024-03-29T00:12:42;9.25;82.51
67275;DHT22;55463;52.324;5.122;2024-03-29T00:15:08;9.29;82.41
67275;DHT22;55463;52.324;5.122;2024-03-29T00:17:33;9.28;82.40
67275;DHT22;55463;52.324;5.122;2024-03-29T00:19:59;9.28;82.52
67275;DHT22;55463;52.324;5.122;2024-03-29T00:22:24;9.25;82.37
67275;DHT22;55463;52.324;5.122;2024-03-29T00:24:49;9.21;82.40
67275;DHT22;55463;52.324;5.122;2024-03-29T00:27:15;9.24;82.34
67275;DHT22;55463;52.324;5.122;2024-03-29T00:29:40;9.22;82.24
67275;DHT22;55463;52.324;5.122;2024-03-29T00:32:06;9.21;82.45
67275;DHT22;55463;52.324;5.122;2024-03-29T00:34:32;9.21;82.20
67275;DHT22;55463;52.324;5.122;2024-03-29T00:36:57;9.18;82.41
67275;DHT22;55463;52.324;5.122;2024-03-29T00:39:25;9.20;82.33
67275;DHT22;55463;52.324;5.122;2024-03-29T00:41:51;9.18;82.34
67275;DHT22;55463;52.324;5.122;2024-03-29T00:44:16;9.18;82.34
67275;DHT22;55463;52.324;5.122;2024-03-29T00:46:42;9.18;82.34
67275;DHT22;55463;52.324;5.122;2024-03-29T00:49:07;9.17;82.39
67275;DHT22;55463;52.324;5.122;2024-03-29T00:51:33;9.15;82.40
67275;DHT22;55463;52.324;5.122;2024-03-29T00:53:58;9.15;82.32
67275;DHT22;55463;52.324;5.122;2024-03-29T00:56:23;9.15;82.19
67275;DHT22;55463;52.324;5.122;2024-03-29T00:58:49;9.12;82.20
67275;DHT22;55463;52.324;5.122;2024-03-29T01:01:14;9.14;82.21
67275;DHT22;55463;52.324;5.122;2024-03-29T01:03:39;9.12;82.14
67275;DHT22;55463;52.324;5.122;2024-03-29T01:06:05;9.14;82.13
67275;DHT22;55463;52.324;5.122;2024-03-29T01:08:30;9.11;82.22
67275;DHT22;55463;52.324;5.122;2024-03-29T01:10:56;9.08;82.41
67275;DHT22;55463;52.324;5.122;2024-03-29T01:13:21;9.03;82.56
67275;DHT22;55463;52.324;5.122;2024-03-29T01:15:47;9.00;82.51
67275;DHT22;55463;52.324;5.122;2024-03-29T01:18:12;9.00;82.58
67275;DHT22;55463;52.324;5.122;2024-03-29T01:20:38;8.99;82.67
67275;DHT22;55463;52.324;5.122;2024-03-29T01:23:03;8.97;82.56
67275;DHT22;55463;52.324;5.122;2024-03-29T01:25:29;8.96;82.65
67275;DHT22;55463;52.324;5.122;2024-03-29T01:27:54;8.97;82.41
67275;DHT22;55463;52.324;5.122;2024-03-29T01:30:20;8.97;82.53
67275;DHT22;55463;52.324;5.122;2024-03-29T01:32:47;8.93;82.48
67275;DHT22;55463;52.324;5.122;2024-03-29T01:35:12;8.91;82.61
67275;DHT22;55463;52.324;5.122;2024-03-29T01:37:38;8.93;82.45
67275;DHT22;55463;52.324;5.122;2024-03-29T01:40:04;8.94;82.42
67275;DHT22;55463;52.324;5.122;2024-03-29T01:42:30;8.91;82.50
67275;DHT22;55463;52.324;5.122;2024-03-29T01:44:55;8.91;82.55
67275;DHT22;55463;52.324;5.122;2024-03-29T01:47:21;8.88;82.69
67275;DHT22;55463;52.324;5.122;2024-03-29T01:49:47;8.84;82.72
67275;DHT22;55463;52.324;5.122;2024-03-29T01:52:14;8.83;82.78
67275;DHT22;55463;52.324;5.122;2024-03-29T01:54:42;8.86;82.73
67275;DHT22;55463;52.324;5.122;2024-03-29T01:57:09;8.87;82.75
67275;DHT22;55463;52.324;5.122;2024-03-29T01:59:35;8.80;82.94
67275;DHT22;55463;52.324;5.122;2024-03-29T02:02:00;8.81;83.00
67275;DHT22;55463;52.324;5.122;2024-03-29T02:04:26;8.83;83.14
67275;DHT22;55463;52.324;5.122;2024-03-29T02:06:52;8.79;83.14
67275;DHT22;55463;52.324;5.122;2024-03-29T02:09:18;8.77;83.23
67275;DHT22;55463;52.324;5.122;2024-03-29T02:11:43;8.75;83.32
67275;DHT22;55463;52.324;5.122;2024-03-29T02:14:09;8.75;83.28
67275;DHT22;55463;52.324;5.122;2024-03-29T02:16:34;8.76;83.34
67275;DHT22;55463;52.324;5.122;2024-03-29T02:18:59;8.70;83.43
67275;DHT22;55463;52.324;5.122;2024-03-29T02:21:25;8.69;83.50
67275;DHT22;55463;52.324;5.122;2024-03-29T02:24:09;8.65;83.58
67275;DHT22;55463;52.324;5.122;2024-03-29T02:26:35;8.65;83.77
67275;DHT22;55463;52.324;5.122;2024-03-29T02:29:03;8.65;83.77
67275;DHT22;55463;52.324;5.122;2024-03-29T02:31:29;8.62;83.85
67275;DHT22;55463;52.324;5.122;2024-03-29T02:33:54;8.63;83.79
67275;DHT22;55463;52.324;5.122;2024-03-29T02:36:19;8.63;83.80
67275;DHT22;55463;52.324;5.122;2024-03-29T02:38:45;8.62;83.70
67275;DHT22;55463;52.324;5.122;2024-03-29T02:41:10;8.62;83.76
67275;DHT22;55463;52.324;5.122;2024-03-29T02:43:36;8.63;83.62
67275;DHT22;55463;52.324;5.122;2024-03-29T02:46:01;8.65;83.60
67275;DHT22;55463;52.324;5.122;2024-03-29T02:48:27;8.60;83.64
67275;DHT22;55463;52.324;5.122;2024-03-29T02:50:52;8.63;83.61
67275;DHT22;55463;52.324;5.122;2024-03-29T02:53:17;8.59;83.68
67275;DHT22;55463;52.324;5.122;2024-03-29T02:55:43;8.60;83.72
67275;DHT22;55463;52.324;5.122;2024-03-29T02:58:08;8.53;83.81
67275;DHT22;55463;52.324;5.122;2024-03-29T03:00:34;8.55;83.88
67275;DHT22;55463;52.324;5.122;2024-03-29T03:02:59;8.53;83.90
67275;DHT22;55463;52.324;5.122;2024-03-29T03:05:24;8.52;83.91
67275;DHT22;55463;52.324;5.122;2024-03-29T03:07:50;8.53;83.91
67275;DHT22;55463;52.324;5.122;2024-03-29T03:10:34;8.55;83.78
67275;DHT22;55463;52.324;5.122;2024-03-29T03:13:18;8.52;83.68
67275;DHT22;55463;52.324;5.122;2024-03-29T03:15:43;8.53;83.67
67275;DHT22;55463;52.324;5.122;2024-03-29T03:18:08;8.55;83.71
67275;DHT22;55463;52.324;5.122;2024-03-29T03:20:34;8.55;83.47
67275;DHT22;55463;52.324;5.122;2024-03-29T03:23:00;8.62;83.42
67275;DHT22;55463;52.324;5.122;2024-03-29T03:25:26;8.60;83.57
67275;DHT22;55463;52.324;5.122;2024-03-29T03:27:52;8.63;83.34
67275;DHT22;55463;52.324;5.122;2024-03-29T03:30:18;8.66;83.47
67275;DHT22;55463;52.324;5.122;2024-03-29T03:32:43;8.65;83.46
67275;DHT22;55463;52.324;5.122;2024-03-29T03:35:09;8.69;83.22
67275;DHT22;55463;52.324;5.122;2024-03-29T03:37:34;8.67;83.16
67275;DHT22;55463;52.324;5.122;2024-03-29T03:40:00;8.70;82.94
67275;DHT22;55463;52.324;5.122;2024-03-29T03:42:25;8.69;82.68
67275;DHT22;55463;52.324;5.122;2024-03-29T03:44:50;8.70;83.01
67275;DHT22;55463;52.324;5.122;2024-03-29T03:47:16;8.67;82.80
67275;DHT22;55463;52.324;5.122;2024-03-29T03:49:41;8.67;83.05
67275;DHT22;55463;52.324;5.122;2024-03-29T03:52:07;8.67;82.91
67275;DHT22;55463;52.324;5.122;2024-03-29T03:54:32;8.65;82.99
67275;DHT22;55463;52.324;5.122;2024-03-29T03:56:57;8.65;83.11
67275;DHT22;55463;52.324;5.122;2024-03-29T03:59:23;8.66;82.89
67275;DHT22;55463;52.324;5.122;2024-03-29T04:01:48;8.63;83.07
67275;DHT22;55463;52.324;5.122;2024-03-29T04:04:17;8.62;83.03
67275;DHT22;55463;52.324;5.122;2024-03-29T04:06:42;8.63;82.87
67275;DHT22;55463;52.324;5.122;2024-03-29T04:09:08;8.63;82.93
67275;DHT22;55463;52.324;5.122;2024-03-29T04:11:33;8.65;82.83
67275;DHT22;55463;52.324;5.122;2024-03-29T04:13:59;8.63;82.86
67275;DHT22;55463;52.324;5.122;2024-03-29T04:16:24;8.65;83.07
67275;DHT22;55463;52.324;5.122;2024-03-29T04:18:50;8.66;83.03
67275;DHT22;55463;52.324;5.122;2024-03-29T04:21:15;8.67;82.99
67275;DHT22;55463;52.324;5.122;2024-03-29T04:23:41;8.67;82.99
67275;DHT22;55463;52.324;5.122;2024-03-29T04:26:06;8.69;83.11
67275;DHT22;55463;52.324;5.122;2024-03-29T04:28:31;8.67;83.18
67275;DHT22;55463;52.324;5.122;2024-03-29T04:30:58;8.67;83.01
67275;DHT22;55463;52.324;5.122;2024-03-29T04:33:24;8.67;83.27
67275;DHT22;55463;52.324;5.122;2024-03-29T04:38:24;8.73;83.07
67275;DHT22;55463;52.324;5.122;2024-03-29T04:40:51;8.73;83.23
67275;DHT22;55463;52.324;5.122;2024-03-29T04:43:17;8.73;83.21
67275;DHT22;55463;52.324;5.122;2024-03-29T04:45:46;8.72;83.34
67275;DHT22;55463;52.324;5.122;2024-03-29T04:48:12;8.73;83.39
67275;DHT22;55463;52.324;5.122;2024-03-29T04:50:37;8.76;83.52
67275;DHT22;55463;52.324;5.122;2024-03-29T04:53:03;8.75;83.38
67275;DHT22;55463;52.324;5.122;2024-03-29T04:55:29;8.76;83.36
67275;DHT22;55463;52.324;5.122;2024-03-29T04:57:54;8.75;83.54
67275;DHT22;55463;52.324;5.122;2024-03-29T05:00:20;8.76;83.66
67275;DHT22;55463;52.324;5.122;2024-03-29T05:02:45;8.73;83.83
67275;DHT22;55463;52.324;5.122;2024-03-29T05:05:10;8.77;84.01
67275;DHT22;55463;52.324;5.122;2024-03-29T05:07:36;8.73;83.94
67275;DHT22;55463;52.324;5.122;2024-03-29T05:10:01;8.81;83.89
67275;DHT22;55463;52.324;5.122;2024-03-29T05:12:31;8.80;84.07
67275;DHT22;55463;52.324;5.122;2024-03-29T05:14:57;8.83;84.03
67275;DHT22;55463;52.324;5.122;2024-03-29T05:17:22;8.84;84.15
67275;DHT22;55463;52.324;5.122;2024-03-29T05:19:50;8.88;84.23
67275;DHT22;55463;52.324;5.122;2024-03-29T05:22:16;8.91;84.40
67275;DHT22;55463;52.324;5.122;2024-03-29T05:24:41;8.91;84.61
67275;DHT22;55463;52.324;5.122;2024-03-29T05:27:07;8.94;84.82
67275;DHT22;55463;52.324;5.122;2024-03-29T05:29:32;8.94;84.86
67275;DHT22;55463;52.324;5.122;2024-03-29T05:31:57;8.97;84.90
67275;DHT22;55463;52.324;5.122;2024-03-29T05:34:23;8.96;85.03
67275;DHT22;55463;52.324;5.122;2024-03-29T05:36:48;8.94;85.25
67275;DHT22;55463;52.324;5.122;2024-03-29T05:39:13;8.97;85.08
67275;DHT22;55463;52.324;5.122;2024-03-29T05:41:40;8.97;85.27
67275;DHT22;55463;52.324;5.122;2024-03-29T05:44:06;8.94;85.57
67275;DHT22;55463;52.324;5.122;2024-03-29T05:46:31;8.90;85.68
67275;DHT22;55463;52.324;5.122;2024-03-29T05:48:57;8.94;85.58
67275;DHT22;55463;52.324;5.122;2024-03-29T05:51:22;8.93;85.86
67275;DHT22;55463;52.324;5.122;2024-03-29T05:53:47;8.93;85.96
67275;DHT22;55463;52.324;5.122;2024-03-29T05:56:13;8.96;86.09
67275;DHT22;55463;52.324;5.122;2024-03-29T05:58:38;8.94;86.39
67275;DHT22;55463;52.324;5.122;2024-03-29T06:01:04;8.94;86.53
67275;DHT22;55463;52.324;5.122;2024-03-29T06:03:29;8.90;87.03
67275;DHT22;55463;52.324;5.122;2024-03-29T06:05:55;8.88;87.36
67275;DHT22;55463;52.324;5.122;2024-03-29T06:08:20;8.90;87.62
67275;DHT22;55463;52.324;5.122;2024-03-29T06:10:46;8.91;87.80
67275;DHT22;55463;52.324;5.122;2024-03-29T06:13:12;8.91;87.95
67275;DHT22;55463;52.324;5.122;2024-03-29T06:16:13;8.91;88.36
67275;DHT22;55463;52.324;5.122;2024-03-29T06:18:57;8.94;88.49
67275;DHT22;55463;52.324;5.122;2024-03-29T06:21:22;8.90;88.89
67275;DHT22;55463;52.324;5.122;2024-03-29T06:23:48;8.93;88.90
67275;DHT22;55463;52.324;5.122;2024-03-29T06:26:13;8.88;89.13
67275;DHT22;55463;52.324;5.122;2024-03-29T06:28:39;8.84;89.32
67275;DHT22;55463;52.324;5.122;2024-03-29T06:31:04;8.81;89.69
67275;DHT22;55463;52.324;5.122;2024-03-29T06:33:30;8.79;89.85
67275;DHT22;55463;52.324;5.122;2024-03-29T06:35:55;8.81;89.93
67275;DHT22;55463;52.324;5.122;2024-03-29T06:38:21;8.84;90.05
67275;DHT22;55463;52.324;5.122;2024-03-29T06:40:46;8.80;90.30
67275;DHT22;55463;52.324;5.122;2024-03-29T06:43:12;8.80;90.62
67275;DHT22;55463;52.324;5.122;2024-03-29T06:45:40;8.80;90.79
67275;DHT22;55463;52.324;5.122;2024-03-29T06:48:08;8.83;90.54
67275;DHT22;55463;52.324;5.122;2024-03-29T06:50:33;8.83;90.75
67275;DHT22;55463;52.324;5.122;2024-03-29T06:53:00;8.84;90.79
67275;DHT22;55463;52.324;5.122;2024-03-29T06:55:25;8.90;90.78
67275;DHT22;55463;52.324;5.122;2024-03-29T06:57:50;8.90;91.10
67275;DHT22;55463;52.324;5.122;2024-03-29T07:00:16;8.93;90.78
67275;DHT22;55463;52.324;5.122;2024-03-29T07:02:42;9.01;90.66
67275;DHT22;55463;52.324;5.122;2024-03-29T07:05:08;9.07;90.50
67275;DHT22;55463;52.324;5.122;2024-03-29T07:07:36;9.11;90.49
67275;DHT22;55463;52.324;5.122;2024-03-29T07:10:02;9.14;90.57
67275;DHT22;55463;52.324;5.122;2024-03-29T07:12:28;9.17;90.61
67275;DHT22;55463;52.324;5.122;2024-03-29T07:14:53;9.25;90.56
67275;DHT22;55463;52.324;5.122;2024-03-29T07:17:18;9.29;90.20
67275;DHT22;55463;52.324;5.122;2024-03-29T07:19:44;9.38;90.29
67275;DHT22;55463;52.324;5.122;2024-03-29T07:22:09;9.42;90.67
67275;DHT22;55463;52.324;5.122;2024-03-29T07:24:35;9.52;90.32
67275;DHT22;55463;52.324;5.122;2024-03-29T07:27:00;9.60;90.05
67275;DHT22;55463;52.324;5.122;2024-03-29T07:29:25;9.70;89.83
67275;DHT22;55463;52.324;5.122;2024-03-29T07:31:51;9.80;89.79
67275;DHT22;55463;52.324;5.122;2024-03-29T07:34:17;9.93;89.74
67275;DHT22;55463;52.324;5.122;2024-03-29T07:36:42;10.07;89.68
67275;DHT22;55463;52.324;5.122;2024-03-29T07:39:08;10.14;89.22
67275;DHT22;55463;52.324;5.122;2024-03-29T07:41:33;10.15;89.09
67275;DHT22;55463;52.324;5.122;2024-03-29T07:43:59;10.11;88.74
67275;DHT22;55463;52.324;5.122;2024-03-29T07:46:29;10.07;88.79
67275;DHT22;55463;52.324;5.122;2024-03-29T07:48:56;10.07;88.82
67275;DHT22;55463;52.324;5.122;2024-03-29T07:51:21;9.93;89.13
67275;DHT22;55463;52.324;5.122;2024-03-29T07:53:47;9.95;89.10
67275;DHT22;55463;52.324;5.122;2024-03-29T07:56:12;9.87;89.34
67275;DHT22;55463;52.324;5.122;2024-03-29T07:58:38;9.91;89.19
67275;DHT22;55463;52.324;5.122;2024-03-29T08:01:03;10.02;89.40
67275;DHT22;55463;52.324;5.122;2024-03-29T08:03:29;10.14;89.50
67275;DHT22;55463;52.324;5.122;2024-03-29T08:06:00;10.19;88.82
67275;DHT22;55463;52.324;5.122;2024-03-29T08:08:30;10.31;88.18
67275;DHT22;55463;52.324;5.122;2024-03-29T08:10:55;10.42;88.43
67275;DHT22;55463;52.324;5.122;2024-03-29T08:13:21;10.56;88.31
67275;DHT22;55463;52.324;5.122;2024-03-29T08:15:48;10.83;87.34
67275;DHT22;55463;52.324;5.122;2024-03-29T08:18:14;11.14;86.84
67275;DHT22;55463;52.324;5.122;2024-03-29T08:20:39;11.12;84.90
67275;DHT22;55463;52.324;5.122;2024-03-29T08:23:05;11.42;84.98
67275;DHT22;55463;52.324;5.122;2024-03-29T08:25:30;11.80;84.57
67275;DHT22;55463;52.324;5.122;2024-03-29T08:27:56;12.28;83.37
67275;DHT22;55463;52.324;5.122;2024-03-29T08:30:25;12.46;82.67
67275;DHT22;55463;52.324;5.122;2024-03-29T08:32:51;12.43;82.13
67275;DHT22;55463;52.324;5.122;2024-03-29T08:35:18;12.57;81.10
67275;DHT22;55463;52.324;5.122;2024-03-29T08:37:43;12.75;81.43
67275;DHT22;55463;52.324;5.122;2024-03-29T08:40:09;12.60;81.03
67275;DHT22;55463;52.324;5.122;2024-03-29T08:42:35;12.79;81.06
67275;DHT22;55463;52.324;5.122;2024-03-29T08:45:02;12.90;81.40
67275;DHT22;55463;52.324;5.122;2024-03-29T08:47:28;13.11;80.91
67275;DHT22;55463;52.324;5.122;2024-03-29T08:49:54;13.26;81.32
67275;DHT22;55463;52.324;5.122;2024-03-29T08:52:19;13.46;81.14
67275;DHT22;55463;52.324;5.122;2024-03-29T08:54:45;13.25;79.83
67275;DHT22;55463;52.324;5.122;2024-03-29T08:57:10;13.35;80.28
67275;DHT22;55463;52.324;5.122;2024-03-29T08:59:36;13.22;79.87
67275;DHT22;55463;52.324;5.122;2024-03-29T09:02:05;13.01;80.49
67275;DHT22;55463;52.324;5.122;2024-03-29T09:04:33;13.03;80.46
67275;DHT22;55463;52.324;5.122;2024-03-29T09:07:02;12.94;81.00
67275;DHT22;55463;52.324;5.122;2024-03-29T09:09:29;13.03;81.21
67275;DHT22;55463;52.324;5.122;2024-03-29T09:11:54;13.00;81.17
67275;DHT22;55463;52.324;5.122;2024-03-29T09:14:20;12.88;80.65
67275;DHT22;55463;52.324;5.122;2024-03-29T09:16:46;13.01;81.04
67275;DHT22;55463;52.324;5.122;2024-03-29T09:19:13;13.10;81.01
67275;DHT22;55463;52.324;5.122;2024-03-29T09:21:39;13.00;80.86
67275;DHT22;55463;52.324;5.122;2024-03-29T09:24:05;12.83;81.04
67275;DHT22;55463;52.324;5.122;2024-03-29T09:26:31;12.76;81.61
67275;DHT22;55463;52.324;5.122;2024-03-29T09:28:56;12.73;81.50
67275;DHT22;55463;52.324;5.122;2024-03-29T09:31:22;12.70;81.58
67275;DHT22;55463;52.324;5.122;2024-03-29T09:33:47;12.53;81.66
67275;DHT22;55463;52.324;5.122;2024-03-29T09:36:19;12.48;81.89
67275;DHT22;55463;52.324;5.122;2024-03-29T09:38:44;12.60;82.20
67275;DHT22;55463;52.324;5.122;2024-03-29T09:41:20;12.73;82.15
67275;DHT22;55463;52.324;5.122;2024-03-29T09:43:47;12.52;81.39
67275;DHT22;55463;52.324;5.122;2024-03-29T09:46:13;12.69;81.86
67275;DHT22;55463;52.324;5.122;2024-03-29T09:48:40;12.75;81.61
67275;DHT22;55463;52.324;5.122;2024-03-29T09:51:07;12.84;81.58
67275;DHT22;55463;52.324;5.122;2024-03-29T09:53:37;12.88;81.98
67275;DHT22;55463;52.324;5.122;2024-03-29T09:56:04;12.83;81.61
67275;DHT22;55463;52.324;5.122;2024-03-29T09:58:31;12.88;81.99
67275;DHT22;55463;52.324;5.122;2024-03-29T10:00:57;12.96;82.56
67275;DHT22;55463;52.324;5.122;2024-03-29T10:03:24;13.10;83.05
67275;DHT22;55463;52.324;5.122;2024-03-29T10:06:04;13.18;82.15
67275;DHT22;55463;52.324;5.122;2024-03-29T10:08:30;13.15;82.12
67275;DHT22;55463;52.324;5.122;2024-03-29T10:10:57;13.28;82.41
67275;DHT22;55463;52.324;5.122;2024-03-29T10:13:23;13.41;81.52
67275;DHT22;55463;52.324;5.122;2024-03-29T10:15:50;13.49;81.40
67275;DHT22;55463;52.324;5.122;2024-03-29T10:18:17;13.51;80.97
67275;DHT22;55463;52.324;5.122;2024-03-29T10:20:45;13.45;80.74
67275;DHT22;55463;52.324;5.122;2024-03-29T10:23:10;13.48;81.21
67275;DHT22;55463;52.324;5.122;2024-03-29T10:25:35;13.84;80.60
67275;DHT22;55463;52.324;5.122;2024-03-29T10:28:01;14.03;79.50
67275;DHT22;55463;52.324;5.122;2024-03-29T10:30:30;14.39;80.11
67275;DHT22;55463;52.324;5.122;2024-03-29T10:32:58;14.65;79.58
67275;DHT22;55463;52.324;5.122;2024-03-29T10:35:27;14.66;78.28
67275;DHT22;55463;52.324;5.122;2024-03-29T10:37:55;14.52;78.49
67275;DHT22;55463;52.324;5.122;2024-03-29T10:40:21;14.39;78.85
67275;DHT22;55463;52.324;5.122;2024-03-29T10:42:48;14.55;79.30
67275;DHT22;55463;52.324;5.122;2024-03-29T10:45:14;14.72;78.49
67275;DHT22;55463;52.324;5.122;2024-03-29T10:47:41;14.52;78.26
67275;DHT22;55463;52.324;5.122;2024-03-29T10:50:11;14.35;78.36
67275;DHT22;55463;52.324;5.122;2024-03-29T10:52:39;14.72;79.33
67275;DHT22;55463;52.324;5.122;2024-03-29T10:55:04;15.28;79.01
67275;DHT22;55463;52.324;5.122;2024-03-29T10:57:34;15.53;77.31
67275;DHT22;55463;52.324;5.122;2024-03-29T11:00:05;15.76;76.93
67275;DHT22;55463;52.324;5.122;2024-03-29T11:02:47;15.86;76.47
67275;DHT22;55463;52.324;5.122;2024-03-29T11:05:14;15.97;75.28
67275;DHT22;55463;52.324;5.122;2024-03-29T11:07:42;16.21;76.26
67275;DHT22;55463;52.324;5.122;2024-03-29T11:10:14;16.18;75.12
67275;DHT22;55463;52.324;5.122;2024-03-29T11:13:12;15.79;75.16
67275;DHT22;55463;52.324;5.122;2024-03-29T11:15:41;15.83;75.08
67275;DHT22;55463;52.324;5.122;2024-03-29T11:18:09;15.87;75.21
67275;DHT22;55463;52.324;5.122;2024-03-29T11:20:35;15.63;75.14
67275;DHT22;55463;52.324;5.122;2024-03-29T11:23:11;15.66;75.65
67275;DHT22;55463;52.324;5.122;2024-03-29T11:25:39;15.50;75.96
67275;DHT22;55463;52.324;5.122;2024-03-29T11:28:06;15.35;75.78
67275;DHT22;55463;52.324;5.122;2024-03-29T11:30:40;15.22;76.30
67275;DHT22;55463;52.324;5.122;2024-03-29T11:33:05;15.17;76.19
67275;DHT22;55463;52.324;5.122;2024-03-29T11:35:31;15.17;77.23
67275;DHT22;55463;52.324;5.122;2024-03-29T11:38:01;15.04;76.57
67275;DHT22;55463;52.324;5.122;2024-03-29T11:40:30;15.12;76.77
67275;DHT22;55463;52.324;5.122;2024-03-29T11:42:55;15.20;77.57
67275;DHT22;55463;52.324;5.122;2024-03-29T11:45:24;15.32;77.29
67275;DHT22;55463;52.324;5.122;2024-03-29T11:47:54;15.18;76.93
67275;DHT22;55463;52.324;5.122;2024-03-29T11:50:20;15.21;76.95
67275;DHT22;55463;52.324;5.122;2024-03-29T11:52:46;15.63;76.63
67275;DHT22;55463;52.324;5.122;2024-03-29T11:55:11;15.71;75.80
67275;DHT22;55463;52.324;5.122;2024-03-29T11:57:36;15.65;75.18
67275;DHT22;55463;52.324;5.122;2024-03-29T12:00:06;15.94;74.76
67275;DHT22;55463;52.324;5.122;2024-03-29T12:02:32;16.26;73.73
67275;DHT22;55463;52.324;5.122;2024-03-29T12:04:58;16.48;73.82
67275;DHT22;55463;52.324;5.122;2024-03-29T12:07:23;16.59;71.53
67275;DHT22;55463;52.324;5.122;2024-03-29T12:09:49;16.83;72.74
67275;DHT22;55463;52.324;5.122;2024-03-29T12:12:15;16.74;71.70
67275;DHT22;55463;52.324;5.122;2024-03-29T12:14:43;16.63;71.95
67275;DHT22;55463;52.324;5.122;2024-03-29T12:17:11;16.24;71.83
67275;DHT22;55463;52.324;5.122;2024-03-29T12:19:37;16.25;73.13
67275;DHT22;55463;52.324;5.122;2024-03-29T12:22:04;16.24;72.88
67275;DHT22;55463;52.324;5.122;2024-03-29T12:24:30;16.51;72.69
67275;DHT22;55463;52.324;5.122;2024-03-29T12:26:55;16.48;73.47
67275;DHT22;55463;52.324;5.122;2024-03-29T12:29:21;16.36;72.52
67275;DHT22;55463;52.324;5.122;2024-03-29T12:31:59;16.41;73.20
67275;DHT22;55463;52.324;5.122;2024-03-29T12:34:25;16.49;73.36
67275;DHT22;55463;52.324;5.122;2024-03-29T12:36:50;16.56;73.15
67275;DHT22;55463;52.324;5.122;2024-03-29T12:39:17;16.29;72.07
67275;DHT22;55463;52.324;5.122;2024-03-29T12:41:42;16.22;72.82
67275;DHT22;55463;52.324;5.122;2024-03-29T12:44:09;16.11;73.13
67275;DHT22;55463;52.324;5.122;2024-03-29T12:46:36;15.80;72.74
67275;DHT22;55463;52.324;5.122;2024-03-29T12:49:02;15.89;73.59
67275;DHT22;55463;52.324;5.122;2024-03-29T12:51:28;15.91;73.52
67275;DHT22;55463;52.324;5.122;2024-03-29T12:53:55;16.03;73.50
67275;DHT22;55463;52.324;5.122;2024-03-29T12:56:21;16.12;73.19
67275;DHT22;55463;52.324;5.122;2024-03-29T12:58:46;16.25;73.07
67275;DHT22;55463;52.324;5.122;2024-03-29T13:01:12;16.46;72.27
67275;DHT22;55463;52.324;5.122;2024-03-29T13:03:37;16.63;71.78
67275;DHT22;55463;52.324;5.122;2024-03-29T13:06:03;16.74;71.17
67275;DHT22;55463;52.324;5.122;2024-03-29T13:08:29;16.84;71.09
67275;DHT22;55463;52.324;5.122;2024-03-29T13:10:54;16.95;71.00
67275;DHT22;55463;52.324;5.122;2024-03-29T13:13:20;17.15;70.94
67275;DHT22;55463;52.324;5.122;2024-03-29T13:15:46;17.20;69.82
67275;DHT22;55463;52.324;5.122;2024-03-29T13:18:12;17.24;69.79
67275;DHT22;55463;52.324;5.122;2024-03-29T13:20:41;17.40;70.41
67275;DHT22;55463;52.324;5.122;2024-03-29T13:23:08;17.52;70.45
67275;DHT22;55463;52.324;5.122;2024-03-29T13:25:34;17.62;69.15
67275;DHT22;55463;52.324;5.122;2024-03-29T13:27:59;17.43;69.32
67275;DHT22;55463;52.324;5.122;2024-03-29T13:30:25;17.42;69.62
67275;DHT22;55463;52.324;5.122;2024-03-29T13:32:52;17.38;69.67
67275;DHT22;55463;52.324;5.122;2024-03-29T13:35:18;17.42;70.10
67275;DHT22;55463;52.324;5.122;2024-03-29T13:37:47;17.18;69.53
67275;DHT22;55463;52.324;5.122;2024-03-29T13:40:14;17.29;70.05
67275;DHT22;55463;52.324;5.122;2024-03-29T13:42:41;17.14;70.68
67275;DHT22;55463;52.324;5.122;2024-03-29T13:45:07;17.35;70.50
67275;DHT22;55463;52.324;5.122;2024-03-29T13:47:43;17.22;69.82
67275;DHT22;55463;52.324;5.122;2024-03-29T13:50:10;16.91;70.11
67275;DHT22;55463;52.324;5.122;2024-03-29T13:52:37;16.77;70.97
67275;DHT22;55463;52.324;5.122;2024-03-29T13:55:05;16.79;71.54
67275;DHT22;55463;52.324;5.122;2024-03-29T13:57:31;16.53;70.78
67275;DHT22;55463;52.324;5.122;2024-03-29T13:59:59;16.56;71.53
67275;DHT22;55463;52.324;5.122;2024-03-29T14:02:25;16.49;71.32
67275;DHT22;55463;52.324;5.122;2024-03-29T14:04:52;16.60;71.86
67275;DHT22;55463;52.324;5.122;2024-03-29T14:07:18;16.39;71.50
67275;DHT22;55463;52.324;5.122;2024-03-29T14:09:44;16.62;72.62
67275;DHT22;55463;52.324;5.122;2024-03-29T14:12:11;16.53;72.66
67275;DHT22;55463;52.324;5.122;2024-03-29T14:14:38;16.55;71.89
67275;DHT22;55463;52.324;5.122;2024-03-29T14:17:03;16.45;71.65
67275;DHT22;55463;52.324;5.122;2024-03-29T14:19:31;16.49;72.03
67275;DHT22;55463;52.324;5.122;2024-03-29T14:21:59;16.59;71.98
67275;DHT22;55463;52.324;5.122;2024-03-29T14:24:24;16.65;71.11
67275;DHT22;55463;52.324;5.122;2024-03-29T14:26:51;16.74;70.26
67275;DHT22;55463;52.324;5.122;2024-03-29T14:29:17;16.74;69.12
67275;DHT22;55463;52.324;5.122;2024-03-29T14:31:45;16.60;69.59
67275;DHT22;55463;52.324;5.122;2024-03-29T14:34:10;16.48;70.23
67275;DHT22;55463;52.324;5.122;2024-03-29T14:36:36;16.44;70.34
67275;DHT22;55463;52.324;5.122;2024-03-29T14:39:01;16.28;71.08
67275;DHT22;55463;52.324;5.122;2024-03-29T14:41:28;16.39;70.96
67275;DHT22;55463;52.324;5.122;2024-03-29T14:43:53;16.41;70.44
67275;DHT22;55463;52.324;5.122;2024-03-29T14:46:20;16.36;71.08
67275;DHT22;55463;52.324;5.122;2024-03-29T14:48:46;16.22;70.57
67275;DHT22;55463;52.324;5.122;2024-03-29T14:51:12;16.21;70.35
67275;DHT22;55463;52.324;5.122;2024-03-29T14:53:37;16.18;70.95
67275;DHT22;55463;52.324;5.122;2024-03-29T14:56:03;16.18;70.72
67275;DHT22;55463;52.324;5.122;2024-03-29T14:58:29;16.26;71.71
67275;DHT22;55463;52.324;5.122;2024-03-29T15:00:54;16.26;71.62
67275;DHT22;55463;52.324;5.122;2024-03-29T15:03:20;16.18;70.68
67275;DHT22;55463;52.324;5.122;2024-03-29T15:05:45;16.15;71.41
67275;DHT22;55463;52.324;5.122;2024-03-29T15:08:11;16.15;70.98
67275;DHT22;55463;52.324;5.122;2024-03-29T15:10:42;16.10;71.22
67275;DHT22;55463;52.324;5.122;2024-03-29T15:13:07;16.01;70.63
67275;DHT22;55463;52.324;5.122;2024-03-29T15:15:33;16.05;71.60
67275;DHT22;55463;52.324;5.122;2024-03-29T15:18:04;16.01;71.27
67275;DHT22;55463;52.324;5.122;2024-03-29T15:20:32;16.01;71.65
67275;DHT22;55463;52.324;5.122;2024-03-29T15:22:57;15.93;70.80
67275;DHT22;55463;52.324;5.122;2024-03-29T15:25:24;15.87;71.05
67275;DHT22;55463;52.324;5.122;2024-03-29T15:27:49;15.84;71.06
67275;DHT22;55463;52.324;5.122;2024-03-29T15:30:33;15.87;71.54
67275;DHT22;55463;52.324;5.122;2024-03-29T15:33:01;15.84;71.77
67275;DHT22;55463;52.324;5.122;2024-03-29T15:35:26;15.98;72.37